createdAt,value
2019-01-06T00:00:43.012Z,0.00
2019-01-06T00:01:43.007Z,0.00
2019-01-06T00:02:42.996Z,0.00
2019-01-06T00:03:42.992Z,0.00
2019-01-06T00:04:42.983Z,0.00
2019-01-06T00:05:42.984Z,0.00
2019-01-06T00:06:42.984Z,0.00
2019-01-06T00:07:42.962Z,0.00
2019-01-06T00:08:42.955Z,0.00
2019-01-06T00:09:42.946Z,0.00
2019-01-06T00:10:42.940Z,0.00
2019-01-06T00:11:42.938Z,0.00
2019-01-06T00:12:42.930Z,0.00
2019-01-06T00:13:42.929Z,0.00
2019-01-06T00:14:42.911Z,0.00
2019-01-06T00:15:42.902Z,0.00
2019-01-06T00:16:42.896Z,0.00
2019-01-06T00:17:42.889Z,0.00
2019-01-06T00:18:42.905Z,0.00
2019-01-06T00:19:42.872Z,0.00
2019-01-06T00:20:42.867Z,0.00
2019-01-06T00:21:42.859Z,0.00
2019-01-06T00:22:42.852Z,0.00
2019-01-06T00:23:42.845Z,0.00
2019-01-06T00:24:42.838Z,0.00
2019-01-06T00:25:42.829Z,0.00
2019-01-06T00:26:42.826Z,0.00
2019-01-06T00:27:42.814Z,0.00
2019-01-06T00:28:42.810Z,0.00
2019-01-06T00:29:42.801Z,0.00
2019-01-06T00:30:42.795Z,0.00
2019-01-06T00:31:42.792Z,0.00
2019-01-06T00:32:42.785Z,0.00
2019-01-06T00:33:42.773Z,0.00
2019-01-06T00:34:42.768Z,0.00
2019-01-06T00:35:42.757Z,0.00
2019-01-06T00:36:42.754Z,0.00
2019-01-06T00:37:42.749Z,0.00
2019-01-06T00:38:42.739Z,0.00
2019-01-06T00:39:42.737Z,0.00
2019-01-06T00:40:42.724Z,0.00
2019-01-06T00:41:42.715Z,0.00
2019-01-06T00:42:42.711Z,0.00
2019-01-06T00:43:42.700Z,0.00
2019-01-06T00:44:42.696Z,0.00
2019-01-06T00:45:42.688Z,0.00
2019-01-06T00:46:42.681Z,0.00
2019-01-06T00:47:42.672Z,0.00
2019-01-06T00:48:42.667Z,0.00
2019-01-06T00:49:42.658Z,0.00
2019-01-06T00:50:42.654Z,0.00
2019-01-06T00:51:42.647Z,0.00
2019-01-06T00:52:42.638Z,0.00
2019-01-06T00:53:42.629Z,0.00
2019-01-06T00:54:42.626Z,0.00
2019-01-06T00:55:42.614Z,0.00
2019-01-06T00:56:42.609Z,0.00
2019-01-06T00:57:42.600Z,0.00
2019-01-06T00:58:42.595Z,0.00
2019-01-06T00:59:42.586Z,0.00
2019-01-06T01:00:42.580Z,0.00
2019-01-06T01:01:42.571Z,0.00
2019-01-06T01:02:42.567Z,0.00
2019-01-06T01:03:42.583Z,0.00
2019-01-06T01:04:42.552Z,0.00
2019-01-06T01:05:42.543Z,0.00
2019-01-06T01:06:42.538Z,0.00
2019-01-06T01:07:42.528Z,0.00
2019-01-06T01:08:42.523Z,0.00
2019-01-06T01:09:42.516Z,0.00
2019-01-06T01:10:42.508Z,0.00
2019-01-06T01:11:42.499Z,0.00
2019-01-06T01:12:42.495Z,0.00
2019-01-06T01:13:42.490Z,0.00
2019-01-06T01:14:42.481Z,0.00
2019-01-06T01:15:42.472Z,0.00
2019-01-06T01:16:42.466Z,0.00
2019-01-06T01:17:42.457Z,0.00
2019-01-06T01:18:42.451Z,0.00
2019-01-06T01:19:42.442Z,0.00
2019-01-06T01:20:42.437Z,0.00
2019-01-06T01:21:42.427Z,0.00
2019-01-06T01:22:42.422Z,0.00
2019-01-06T01:23:42.412Z,0.00
2019-01-06T01:24:42.658Z,0.00
2019-01-06T01:25:42.398Z,0.00
2019-01-06T01:26:48.369Z,0.00
2019-01-06T01:27:42.386Z,0.00
2019-01-06T01:28:42.380Z,0.00
2019-01-06T01:29:42.370Z,0.00
2019-01-06T01:30:42.365Z,0.00
2019-01-06T01:31:42.605Z,0.00
2019-01-06T01:32:42.350Z,0.00
2019-01-06T01:33:42.341Z,0.00
2019-01-06T01:34:42.335Z,0.00
2019-01-06T01:35:42.326Z,0.00
2019-01-06T01:36:42.321Z,0.00
2019-01-06T01:37:42.312Z,0.00
2019-01-06T01:38:42.306Z,0.00
2019-01-06T01:39:42.297Z,0.00
2019-01-06T01:40:42.292Z,0.00
2019-01-06T01:41:42.283Z,0.00
2019-01-06T01:42:42.278Z,0.00
2019-01-06T01:43:42.268Z,0.00
2019-01-06T01:44:42.262Z,0.00
2019-01-06T01:45:42.254Z,0.00
2019-01-06T01:46:42.247Z,0.00
2019-01-06T01:47:42.238Z,0.00
2019-01-06T01:48:42.234Z,0.00
2019-01-06T01:49:42.300Z,0.00
2019-01-06T01:50:42.219Z,0.00
2019-01-06T01:51:42.210Z,0.00
2019-01-06T01:52:42.205Z,0.00
2019-01-06T01:53:42.195Z,0.00
2019-01-06T01:54:42.191Z,0.00
2019-01-06T01:55:42.180Z,0.00
2019-01-06T01:56:42.176Z,0.00
2019-01-06T01:57:42.167Z,0.00
2019-01-06T01:58:42.161Z,0.00
2019-01-06T01:59:42.155Z,0.00
2019-01-06T02:00:42.147Z,0.00
2019-01-06T02:01:42.388Z,0.00
2019-01-06T02:02:42.133Z,0.00
2019-01-06T02:03:42.124Z,0.00
2019-01-06T02:04:42.120Z,0.00
2019-01-06T02:05:42.119Z,0.00
2019-01-06T02:06:42.104Z,0.00
2019-01-06T02:07:42.094Z,0.00
2019-01-06T02:08:42.092Z,0.00
2019-01-06T02:09:42.081Z,0.00
2019-01-06T02:10:42.075Z,0.00
2019-01-06T02:11:42.066Z,0.00
2019-01-06T02:12:42.068Z,0.00
2019-01-06T02:13:42.066Z,0.00
2019-01-06T02:14:42.046Z,0.00
2019-01-06T02:15:42.042Z,0.00
2019-01-06T02:16:42.032Z,0.00
2019-01-06T02:17:42.023Z,0.00
2019-01-06T02:18:42.017Z,0.00
2019-01-06T02:19:42.008Z,0.00
2019-01-06T02:20:42.003Z,0.00
2019-01-06T02:21:41.994Z,0.00
2019-01-06T02:22:41.988Z,0.00
2019-01-06T02:23:41.980Z,0.00
2019-01-06T02:24:41.975Z,0.00
2019-01-06T02:25:41.965Z,0.00
2019-01-06T02:26:41.961Z,0.00
2019-01-06T02:27:41.954Z,0.00
2019-01-06T02:28:41.946Z,0.00
2019-01-06T02:29:41.937Z,0.00
2019-01-06T02:30:41.931Z,0.00
2019-01-06T02:31:41.922Z,0.00
2019-01-06T02:32:41.922Z,0.00
2019-01-06T02:33:41.908Z,0.00
2019-01-06T02:34:41.903Z,0.00
2019-01-06T02:35:41.895Z,0.00
2019-01-06T02:36:41.888Z,0.00
2019-01-06T02:37:41.882Z,0.00
2019-01-06T02:38:41.874Z,0.00
2019-01-06T02:39:41.866Z,0.00
2019-01-06T02:40:41.859Z,0.00
2019-01-06T02:41:41.854Z,0.00
2019-01-06T02:42:41.844Z,0.00
2019-01-06T02:43:41.839Z,0.00
2019-01-06T02:44:41.830Z,0.00
2019-01-06T02:45:41.841Z,0.00
2019-01-06T02:46:41.816Z,0.00
2019-01-06T02:47:41.807Z,0.00
2019-01-06T02:48:41.801Z,0.00
2019-01-06T02:49:41.792Z,0.00
2019-01-06T02:50:41.792Z,0.00
2019-01-06T02:51:41.799Z,0.00
2019-01-06T02:52:41.772Z,0.00
2019-01-06T02:53:41.764Z,0.00
2019-01-06T02:54:41.759Z,0.00
2019-01-06T02:55:41.748Z,0.00
2019-01-06T02:56:41.744Z,0.00
2019-01-06T02:57:41.734Z,0.00
2019-01-06T02:58:41.728Z,0.00
2019-01-06T02:59:41.720Z,0.00
2019-01-06T03:00:41.719Z,0.00
2019-01-06T03:01:41.705Z,0.00
2019-01-06T03:02:41.700Z,0.00
2019-01-06T03:03:41.690Z,0.00
2019-01-06T03:04:41.689Z,0.00
2019-01-06T03:05:41.678Z,0.00
2019-01-06T03:06:41.921Z,0.00
2019-01-06T03:07:41.662Z,0.00
2019-01-06T03:08:41.656Z,0.00
2019-01-06T03:09:41.653Z,0.00
2019-01-06T03:10:41.643Z,0.00
2019-01-06T03:11:41.634Z,0.00
2019-01-06T03:12:41.630Z,0.00
2019-01-06T03:13:41.620Z,0.00
2019-01-06T03:14:41.614Z,0.00
2019-01-06T03:15:41.605Z,0.00
2019-01-06T03:16:41.601Z,0.00
2019-01-06T03:17:41.589Z,0.00
2019-01-06T03:18:41.584Z,0.00
2019-01-06T03:19:41.574Z,0.00
2019-01-06T03:20:41.570Z,0.00
2019-01-06T03:21:41.560Z,0.00
2019-01-06T03:22:41.555Z,0.00
2019-01-06T03:23:41.546Z,0.00
2019-01-06T03:24:41.542Z,0.00
2019-01-06T03:25:41.531Z,0.00
2019-01-06T03:26:41.526Z,0.00
2019-01-06T03:27:41.518Z,0.00
2019-01-06T03:28:41.514Z,0.00
2019-01-06T03:29:41.503Z,0.00
2019-01-06T03:30:41.498Z,0.00
2019-01-06T03:31:41.495Z,0.00
2019-01-06T03:32:41.487Z,0.00
2019-01-06T03:33:41.475Z,0.00
2019-01-06T03:34:41.470Z,0.00
2019-01-06T03:35:41.466Z,0.00
2019-01-06T03:36:41.705Z,0.00
2019-01-06T03:37:41.465Z,0.00
2019-01-06T03:38:41.439Z,0.00
2019-01-06T03:39:41.429Z,0.00
2019-01-06T03:40:41.424Z,0.00
2019-01-06T03:41:41.415Z,0.00
2019-01-06T03:42:41.409Z,0.00
2019-01-06T03:43:41.400Z,0.00
2019-01-06T03:44:41.396Z,0.00
2019-01-06T03:45:41.386Z,0.00
2019-01-06T03:46:41.380Z,0.00
2019-01-06T03:47:41.373Z,0.00
2019-01-06T03:48:41.367Z,0.00
2019-01-06T03:49:41.356Z,0.00
2019-01-06T03:50:41.351Z,0.00
2019-01-06T03:51:41.345Z,0.00
2019-01-06T03:52:41.337Z,0.00
2019-01-06T03:53:41.327Z,0.00
2019-01-06T03:54:41.320Z,0.00
2019-01-06T03:55:41.311Z,0.00
2019-01-06T03:56:41.307Z,0.00
2019-01-06T03:57:41.300Z,0.00
2019-01-06T03:58:41.292Z,0.00
2019-01-06T03:59:41.283Z,0.00
2019-01-06T04:00:41.278Z,0.00
2019-01-06T04:01:41.268Z,0.00
2019-01-06T04:02:41.262Z,0.00
2019-01-06T04:03:41.253Z,0.00
2019-01-06T04:04:41.255Z,0.00
2019-01-06T04:05:41.255Z,0.00
2019-01-06T04:06:41.501Z,0.00
2019-01-06T04:07:41.223Z,0.00
2019-01-06T04:08:41.219Z,0.00
2019-01-06T04:09:41.209Z,0.00
2019-01-06T04:10:41.205Z,0.00
2019-01-06T04:11:41.199Z,0.00
2019-01-06T04:12:41.216Z,0.00
2019-01-06T04:13:41.180Z,0.00
2019-01-06T04:14:41.195Z,0.00
2019-01-06T04:15:41.165Z,0.00
2019-01-06T04:16:41.160Z,0.00
2019-01-06T04:17:41.151Z,0.00
2019-01-06T04:18:41.145Z,0.00
2019-01-06T04:19:41.135Z,0.00
2019-01-06T04:20:41.136Z,0.00
2019-01-06T04:21:41.122Z,0.00
2019-01-06T04:22:41.119Z,0.00
2019-01-06T04:23:41.106Z,0.00
2019-01-06T04:24:41.099Z,0.00
2019-01-06T04:25:41.094Z,0.00
2019-01-06T04:26:41.084Z,0.00
2019-01-06T04:27:41.080Z,0.00
2019-01-06T04:28:41.074Z,0.00
2019-01-06T04:29:41.067Z,0.00
2019-01-06T04:30:41.055Z,0.00
2019-01-06T04:31:41.050Z,0.00
2019-01-06T04:32:41.041Z,0.00
2019-01-06T04:33:41.055Z,0.00
2019-01-06T04:34:41.025Z,0.00
2019-01-06T04:35:41.021Z,0.00
2019-01-06T04:36:41.011Z,0.00
2019-01-06T04:37:41.285Z,0.00
2019-01-06T04:38:40.997Z,0.00
2019-01-06T04:39:40.996Z,0.00
2019-01-06T04:40:40.982Z,0.00
2019-01-06T04:41:40.979Z,0.00
2019-01-06T04:42:40.967Z,0.00
2019-01-06T04:43:40.962Z,0.00
2019-01-06T04:44:40.953Z,0.00
2019-01-06T04:45:40.948Z,0.00
2019-01-06T04:46:40.937Z,0.00
2019-01-06T04:47:40.936Z,0.00
2019-01-06T04:48:40.923Z,0.00
2019-01-06T04:49:40.919Z,0.00
2019-01-06T04:50:40.908Z,0.00
2019-01-06T04:51:40.904Z,0.00
2019-01-06T04:52:40.894Z,0.00
2019-01-06T04:53:40.890Z,0.00
2019-01-06T04:54:40.882Z,0.00
2019-01-06T04:55:40.876Z,0.00
2019-01-06T04:56:40.866Z,0.00
2019-01-06T04:57:40.861Z,0.00
2019-01-06T04:58:40.851Z,0.00
2019-01-06T04:59:40.854Z,0.00
2019-01-06T05:00:40.836Z,0.00
2019-01-06T05:01:40.832Z,0.00
2019-01-06T05:02:40.824Z,0.00
2019-01-06T05:03:40.818Z,0.00
2019-01-06T05:04:40.808Z,0.00
2019-01-06T05:05:40.802Z,0.00
2019-01-06T05:06:40.793Z,0.00
2019-01-06T05:07:40.809Z,0.00
2019-01-06T05:08:40.778Z,0.00
2019-01-06T05:09:40.773Z,0.00
2019-01-06T05:10:40.763Z,0.00
2019-01-06T05:11:40.758Z,0.00
2019-01-06T05:12:40.748Z,0.00
2019-01-06T05:13:40.744Z,0.00
2019-01-06T05:14:40.733Z,0.00
2019-01-06T05:15:40.737Z,0.00
2019-01-06T05:16:40.720Z,0.00
2019-01-06T05:17:40.715Z,0.00
2019-01-06T05:18:40.706Z,0.00
2019-01-06T05:19:40.700Z,0.00
2019-01-06T05:20:40.692Z,0.00
2019-01-06T05:21:40.686Z,0.00
2019-01-06T05:22:40.698Z,0.00
2019-01-06T05:23:40.673Z,0.00
2019-01-06T05:24:40.964Z,0.00
2019-01-06T05:25:40.656Z,0.00
2019-01-06T05:26:40.649Z,0.00
2019-01-06T05:27:40.641Z,0.00
2019-01-06T05:28:40.632Z,0.00
2019-01-06T05:29:40.627Z,0.00
2019-01-06T05:30:40.619Z,0.00
2019-01-06T05:31:40.622Z,0.00
2019-01-06T05:32:40.603Z,0.00
2019-01-06T05:33:40.598Z,0.00
2019-01-06T05:34:40.588Z,0.00
2019-01-06T05:35:40.584Z,0.00
2019-01-06T05:36:40.574Z,0.00
2019-01-06T05:37:40.569Z,0.00
2019-01-06T05:38:40.560Z,0.00
2019-01-06T05:39:40.553Z,0.00
2019-01-06T05:40:40.544Z,0.00
2019-01-06T05:41:40.540Z,0.00
2019-01-06T05:42:40.530Z,0.00
2019-01-06T05:43:40.530Z,0.00
2019-01-06T05:44:40.515Z,0.00
2019-01-06T05:45:40.514Z,0.00
2019-01-06T05:46:40.501Z,0.00
2019-01-06T05:47:40.496Z,0.00
2019-01-06T05:48:40.488Z,0.00
2019-01-06T05:49:40.482Z,0.00
2019-01-06T05:50:40.471Z,0.00
2019-01-06T05:51:40.469Z,0.00
2019-01-06T05:52:40.457Z,0.00
2019-01-06T05:53:40.452Z,0.00
2019-01-06T05:54:40.449Z,0.00
2019-01-06T05:55:40.437Z,0.00
2019-01-06T05:56:40.428Z,0.00
2019-01-06T05:57:40.423Z,0.00
2019-01-06T05:58:40.427Z,0.00
2019-01-06T05:59:40.408Z,0.00
2019-01-06T06:00:40.400Z,0.00
2019-01-06T06:01:40.396Z,0.00
2019-01-06T06:02:40.390Z,0.00
2019-01-06T06:03:40.394Z,0.00
2019-01-06T06:04:40.369Z,0.00
2019-01-06T06:05:40.366Z,0.00
2019-01-06T06:06:40.355Z,0.00
2019-01-06T06:07:40.349Z,0.00
2019-01-06T06:08:40.341Z,0.00
2019-01-06T06:09:40.351Z,0.00
2019-01-06T06:10:40.341Z,0.00
2019-01-06T06:11:40.320Z,0.00
2019-01-06T06:12:40.311Z,0.00
2019-01-06T06:13:40.308Z,0.00
2019-01-06T06:14:40.296Z,0.00
2019-01-06T06:15:40.291Z,0.00
2019-01-06T06:16:40.281Z,0.00
2019-01-06T06:17:40.277Z,0.00
2019-01-06T06:18:40.268Z,0.00
2019-01-06T06:19:40.263Z,0.00
2019-01-06T06:20:40.253Z,0.00
2019-01-06T06:21:40.248Z,0.00
2019-01-06T06:22:40.238Z,0.00
2019-01-06T06:23:40.234Z,0.00
2019-01-06T06:24:40.224Z,0.00
2019-01-06T06:25:40.220Z,0.00
2019-01-06T06:26:40.209Z,0.00
2019-01-06T06:27:40.205Z,0.00
2019-01-06T06:28:40.195Z,0.00
2019-01-06T06:29:40.191Z,0.00
2019-01-06T06:30:40.336Z,0.00
2019-01-06T06:31:40.175Z,0.00
2019-01-06T06:32:40.166Z,0.00
2019-01-06T06:33:40.162Z,0.00
2019-01-06T06:34:40.153Z,0.00
2019-01-06T06:35:40.147Z,0.00
2019-01-06T06:36:40.142Z,0.00
2019-01-06T06:37:40.133Z,0.00
2019-01-06T06:38:40.123Z,0.00
2019-01-06T06:39:40.120Z,0.00
2019-01-06T06:40:40.109Z,0.00
2019-01-06T06:41:40.106Z,0.00
2019-01-06T06:42:40.095Z,0.00
2019-01-06T06:43:40.090Z,0.00
2019-01-06T06:44:40.081Z,0.00
2019-01-06T06:45:40.076Z,0.00
2019-01-06T06:46:40.066Z,0.00
2019-01-06T06:47:40.062Z,0.00
2019-01-06T06:48:40.056Z,0.00
2019-01-06T06:49:40.048Z,0.00
2019-01-06T06:50:40.038Z,0.00
2019-01-06T06:51:40.033Z,0.00
2019-01-06T06:52:40.025Z,0.00
2019-01-06T06:53:40.022Z,0.00
2019-01-06T06:54:40.011Z,0.00
2019-01-06T06:55:40.005Z,0.00
2019-01-06T06:56:39.996Z,0.00
2019-01-06T06:57:39.992Z,0.00
2019-01-06T06:58:39.981Z,0.00
2019-01-06T06:59:39.977Z,0.00
2019-01-06T07:00:39.968Z,0.00
2019-01-06T07:01:39.966Z,0.00
2019-01-06T07:02:39.954Z,0.00
2019-01-06T07:03:39.949Z,0.00
2019-01-06T07:04:39.940Z,0.00
2019-01-06T07:05:39.936Z,0.00
2019-01-06T07:06:39.925Z,0.00
2019-01-06T07:07:39.921Z,4.00
2019-01-06T07:08:39.911Z,0.00
2019-01-06T07:09:39.908Z,0.00
2019-01-06T07:10:39.897Z,0.00
2019-01-06T07:11:39.892Z,4.00
2019-01-06T07:12:39.883Z,4.00
2019-01-06T07:13:41.043Z,0.00
2019-01-06T07:14:39.869Z,4.00
2019-01-06T07:15:39.864Z,4.00
2019-01-06T07:16:39.856Z,4.00
2019-01-06T07:17:39.851Z,4.00
2019-01-06T07:18:39.843Z,4.00
2019-01-06T07:19:39.835Z,8.00
2019-01-06T07:20:39.826Z,8.00
2019-01-06T07:21:39.822Z,8.00
2019-01-06T07:22:39.812Z,8.00
2019-01-06T07:23:39.807Z,12.00
2019-01-06T07:24:40.101Z,12.00
2019-01-06T07:25:39.796Z,12.00
2019-01-06T07:26:39.784Z,16.00
2019-01-06T07:27:39.779Z,16.00
2019-01-06T07:28:39.770Z,16.00
2019-01-06T07:29:39.765Z,16.00
2019-01-06T07:30:39.756Z,16.00
2019-01-06T07:31:39.751Z,20.00
2019-01-06T07:32:39.743Z,24.00
2019-01-06T07:33:39.737Z,24.00
2019-01-06T07:34:39.727Z,24.00
2019-01-06T07:35:39.723Z,32.00
2019-01-06T07:36:39.713Z,32.00
2019-01-06T07:37:39.709Z,32.00
2019-01-06T07:38:39.701Z,36.00
2019-01-06T07:39:39.694Z,40.00
2019-01-06T07:40:39.686Z,40.00
2019-01-06T07:41:39.681Z,40.00
2019-01-06T07:42:39.671Z,44.00
2019-01-06T07:43:39.666Z,52.00
2019-01-06T07:44:39.657Z,52.00
2019-01-06T07:45:39.653Z,56.00
2019-01-06T07:46:39.644Z,56.00
2019-01-06T07:47:39.641Z,60.00
2019-01-06T07:48:39.629Z,64.00
2019-01-06T07:49:39.624Z,64.00
2019-01-06T07:50:39.615Z,64.00
2019-01-06T07:51:39.610Z,64.00
2019-01-06T07:52:39.601Z,72.00
2019-01-06T07:53:39.597Z,76.00
2019-01-06T07:54:39.587Z,80.00
2019-01-06T07:55:39.582Z,76.00
2019-01-06T07:56:39.573Z,84.00
2019-01-06T07:57:39.569Z,84.00
2019-01-06T07:58:39.559Z,96.00
2019-01-06T07:59:39.554Z,100.00
2019-01-06T08:00:39.546Z,100.00
2019-01-06T08:01:39.543Z,104.00
2019-01-06T08:02:39.531Z,124.00
2019-01-06T08:03:39.530Z,132.00
2019-01-06T08:04:39.529Z,128.00
2019-01-06T08:05:39.512Z,148.00
2019-01-06T08:06:39.501Z,148.00
2019-01-06T08:07:39.499Z,176.00
2019-01-06T08:08:39.488Z,184.00
2019-01-06T08:09:39.485Z,212.00
2019-01-06T08:10:39.473Z,180.00
2019-01-06T08:11:39.474Z,192.00
2019-01-06T08:12:39.475Z,184.00
2019-01-06T08:13:39.456Z,188.00
2019-01-06T08:14:39.455Z,200.00
2019-01-06T08:15:39.440Z,192.00
2019-01-06T08:16:39.430Z,188.00
2019-01-06T08:17:39.428Z,168.00
2019-01-06T08:18:39.415Z,136.00
2019-01-06T08:19:39.415Z,152.00
2019-01-06T08:20:39.401Z,148.00
2019-01-06T08:21:39.395Z,152.00
2019-01-06T08:22:39.385Z,152.00
2019-01-06T08:23:39.381Z,172.00
2019-01-06T08:24:39.371Z,180.00
2019-01-06T08:25:39.367Z,200.00
2019-01-06T08:26:39.357Z,204.00
2019-01-06T08:27:39.352Z,208.00
2019-01-06T08:28:39.345Z,204.00
2019-01-06T08:29:39.339Z,216.00
2019-01-06T08:30:39.328Z,256.00
2019-01-06T08:31:39.326Z,272.00
2019-01-06T08:32:39.314Z,264.00
2019-01-06T08:33:39.310Z,288.00
2019-01-06T08:34:39.300Z,316.00
2019-01-06T08:35:39.297Z,316.00
2019-01-06T08:36:39.286Z,296.00
2019-01-06T08:37:39.282Z,280.00
2019-01-06T08:38:39.286Z,272.00
2019-01-06T08:39:39.267Z,260.00
2019-01-06T08:40:39.260Z,248.00
2019-01-06T08:41:39.251Z,248.00
2019-01-06T08:42:39.245Z,256.00
2019-01-06T08:43:39.236Z,240.00
2019-01-06T08:44:39.232Z,252.00
2019-01-06T08:45:39.223Z,244.00
2019-01-06T08:46:39.223Z,256.00
2019-01-06T08:47:39.209Z,240.00
2019-01-06T08:48:39.204Z,268.00
2019-01-06T08:49:39.200Z,272.00
2019-01-06T08:50:39.191Z,304.00
2019-01-06T08:51:39.181Z,332.00
2019-01-06T08:52:39.176Z,320.00
2019-01-06T08:53:39.169Z,324.00
2019-01-06T08:54:39.162Z,304.00
2019-01-06T08:55:39.154Z,308.00
2019-01-06T08:56:39.149Z,328.00
2019-01-06T08:57:39.141Z,312.00
2019-01-06T08:58:39.136Z,328.00
2019-01-06T08:59:39.126Z,368.00
2019-01-06T09:00:39.121Z,352.00
2019-01-06T09:01:39.114Z,376.00
2019-01-06T09:02:39.107Z,412.00
2019-01-06T09:03:39.098Z,420.00
2019-01-06T09:04:39.094Z,444.00
2019-01-06T09:05:39.085Z,452.00
2019-01-06T09:06:39.079Z,428.00
2019-01-06T09:07:39.072Z,396.00
2019-01-06T09:08:39.100Z,408.00
2019-01-06T09:09:45.506Z,420.00
2019-01-06T09:10:39.052Z,396.00
2019-01-06T09:11:39.044Z,388.00
2019-01-06T09:12:43.250Z,412.00
2019-01-06T09:13:39.031Z,420.00
2019-01-06T09:14:39.024Z,420.00
2019-01-06T09:15:39.015Z,472.00
2019-01-06T09:16:39.011Z,480.00
2019-01-06T09:17:39.003Z,456.00
2019-01-06T09:18:38.996Z,464.00
2019-01-06T09:19:38.987Z,512.00
2019-01-06T09:20:38.985Z,512.00
2019-01-06T09:21:38.975Z,532.00
2019-01-06T09:22:38.968Z,532.00
2019-01-06T09:23:38.959Z,564.00
2019-01-06T09:24:38.955Z,532.00
2019-01-06T09:25:41.206Z,580.00
2019-01-06T09:26:38.942Z,644.00
2019-01-06T09:27:38.932Z,632.00
2019-01-06T09:28:38.927Z,684.00
2019-01-06T09:29:38.919Z,660.00
2019-01-06T09:30:38.914Z,680.00
2019-01-06T09:31:38.905Z,748.00
2019-01-06T09:32:38.901Z,692.00
2019-01-06T09:33:38.891Z,696.00
2019-01-06T09:34:38.886Z,764.00
2019-01-06T09:35:39.027Z,748.00
2019-01-06T09:36:38.872Z,752.00
2019-01-06T09:37:38.864Z,780.00
2019-01-06T09:38:38.858Z,764.00
2019-01-06T09:39:38.849Z,752.00
2019-01-06T09:40:38.845Z,756.00
2019-01-06T09:41:38.838Z,764.00
2019-01-06T09:42:38.832Z,752.00
2019-01-06T09:43:38.821Z,700.00
2019-01-06T09:44:38.817Z,720.00
2019-01-06T09:45:38.808Z,656.00
2019-01-06T09:46:38.803Z,572.00
2019-01-06T09:47:38.793Z,604.00
2019-01-06T09:48:38.789Z,676.00
2019-01-06T09:49:38.781Z,696.00
2019-01-06T09:50:38.776Z,752.00
2019-01-06T09:51:38.766Z,780.00
2019-01-06T09:52:38.762Z,732.00
2019-01-06T09:53:38.753Z,836.00
2019-01-06T09:54:38.747Z,860.00
2019-01-06T09:55:38.738Z,832.00
2019-01-06T09:56:38.734Z,968.00
2019-01-06T09:57:38.726Z,980.00
2019-01-06T09:58:38.720Z,1016.00
2019-01-06T09:59:38.761Z,908.00
2019-01-06T10:00:38.707Z,940.00
2019-01-06T10:01:38.697Z,832.00
2019-01-06T10:02:38.692Z,1004.00
2019-01-06T10:03:38.683Z,1012.00
2019-01-06T10:04:38.680Z,972.00
2019-01-06T10:05:38.670Z,996.00
2019-01-06T10:06:38.668Z,1084.00
2019-01-06T10:07:38.663Z,1100.00
2019-01-06T10:08:38.667Z,1080.00
2019-01-06T10:09:38.642Z,1136.00
2019-01-06T10:10:38.637Z,1244.00
2019-01-06T10:11:38.628Z,1124.00
2019-01-06T10:12:38.624Z,1052.00
2019-01-06T10:13:38.615Z,952.00
2019-01-06T10:14:38.611Z,956.00
2019-01-06T10:15:38.610Z,964.00
2019-01-06T10:16:38.596Z,956.00
2019-01-06T10:17:38.588Z,948.00
2019-01-06T10:18:38.582Z,924.00
2019-01-06T10:19:38.573Z,896.00
2019-01-06T10:20:38.569Z,868.00
2019-01-06T10:21:38.560Z,956.00
2019-01-06T10:22:38.556Z,976.00
2019-01-06T10:23:38.547Z,912.00
2019-01-06T10:24:38.542Z,1036.00
2019-01-06T10:25:38.534Z,1056.00
2019-01-06T10:26:38.531Z,1032.00
2019-01-06T10:27:38.520Z,1076.00
2019-01-06T10:28:38.517Z,1148.00
2019-01-06T10:29:38.506Z,1184.00
2019-01-06T10:30:38.501Z,1296.00
2019-01-06T10:31:38.496Z,1240.00
2019-01-06T10:32:38.489Z,1136.00
2019-01-06T10:33:38.481Z,1084.00
2019-01-06T10:34:38.474Z,1044.00
2019-01-06T10:35:38.466Z,980.00
2019-01-06T10:36:38.465Z,992.00
2019-01-06T10:37:38.453Z,1068.00
2019-01-06T10:38:38.447Z,1076.00
2019-01-06T10:39:38.440Z,1160.00
2019-01-06T10:40:38.436Z,1120.00
2019-01-06T10:41:38.426Z,1116.00
2019-01-06T10:42:38.421Z,1032.00
2019-01-06T10:43:38.412Z,956.00
2019-01-06T10:44:38.408Z,944.00
2019-01-06T10:45:38.400Z,960.00
2019-01-06T10:46:38.395Z,896.00
2019-01-06T10:47:38.387Z,860.00
2019-01-06T10:48:38.382Z,836.00
2019-01-06T10:49:38.374Z,828.00
2019-01-06T10:50:38.369Z,776.00
2019-01-06T10:51:38.361Z,756.00
2019-01-06T10:52:38.357Z,776.00
2019-01-06T10:53:38.349Z,728.00
2019-01-06T10:54:38.343Z,760.00
2019-01-06T10:55:38.335Z,768.00
2019-01-06T10:56:38.331Z,712.00
2019-01-06T10:57:38.323Z,700.00
2019-01-06T10:58:38.319Z,652.00
2019-01-06T10:59:38.312Z,628.00
2019-01-06T11:00:38.305Z,732.00
2019-01-06T11:01:38.297Z,676.00
2019-01-06T11:02:38.298Z,620.00
2019-01-06T11:03:38.284Z,660.00
2019-01-06T11:04:38.279Z,592.00
2019-01-06T11:05:38.271Z,652.00
2019-01-06T11:06:38.266Z,612.00
2019-01-06T11:07:38.258Z,600.00
2019-01-06T11:08:38.254Z,588.00
2019-01-06T11:09:38.246Z,568.00
2019-01-06T11:10:38.241Z,644.00
2019-01-06T11:11:38.231Z,780.00
2019-01-06T11:12:38.227Z,700.00
2019-01-06T11:13:38.219Z,780.00
2019-01-06T11:14:38.214Z,824.00
2019-01-06T11:15:38.206Z,760.00
2019-01-06T11:16:38.201Z,724.00
2019-01-06T11:17:38.193Z,628.00
2019-01-06T11:18:38.187Z,884.00
2019-01-06T11:19:38.181Z,664.00
2019-01-06T11:20:38.174Z,500.00
2019-01-06T11:21:38.166Z,512.00
2019-01-06T11:22:38.160Z,524.00
2019-01-06T11:23:38.151Z,508.00
2019-01-06T11:24:38.148Z,536.00
2019-01-06T11:25:38.139Z,632.00
2019-01-06T11:26:38.134Z,736.00
2019-01-06T11:27:38.125Z,908.00
2019-01-06T11:28:38.121Z,956.00
2019-01-06T11:29:38.112Z,1060.00
2019-01-06T11:30:38.108Z,1168.00
2019-01-06T11:31:38.101Z,1164.00
2019-01-06T11:32:38.095Z,1184.00
2019-01-06T11:33:38.086Z,1180.00
2019-01-06T11:34:38.084Z,1212.00
2019-01-06T11:35:38.074Z,1184.00
2019-01-06T11:36:38.067Z,1164.00
2019-01-06T11:37:38.059Z,1152.00
2019-01-06T11:38:38.054Z,1188.00
2019-01-06T11:39:38.045Z,1160.00
2019-01-06T11:40:38.041Z,1172.00
2019-01-06T11:41:38.032Z,1236.00
2019-01-06T11:42:38.027Z,1300.00
2019-01-06T11:43:38.019Z,1248.00
2019-01-06T11:44:38.014Z,1136.00
2019-01-06T11:45:38.006Z,1112.00
2019-01-06T11:46:38.000Z,1224.00
2019-01-06T11:47:37.992Z,1300.00
2019-01-06T11:48:37.987Z,1436.00
2019-01-06T11:49:37.979Z,1400.00
2019-01-06T11:50:37.973Z,1480.00
2019-01-06T11:51:37.966Z,1452.00
2019-01-06T11:52:37.961Z,1240.00
2019-01-06T11:53:37.952Z,1392.00
2019-01-06T11:54:37.947Z,1408.00
2019-01-06T11:55:37.938Z,1412.00
2019-01-06T11:56:37.935Z,1372.00
2019-01-06T11:57:37.926Z,1496.00
2019-01-06T11:58:37.923Z,1524.00
2019-01-06T11:59:37.912Z,1416.00
2019-01-06T12:00:38.064Z,1304.00
2019-01-06T12:01:37.899Z,1132.00
2019-01-06T12:02:39.207Z,1160.00
2019-01-06T12:03:37.885Z,1180.00
2019-01-06T12:04:37.882Z,1360.00
2019-01-06T12:05:37.873Z,1720.00
2019-01-06T12:06:37.868Z,2076.00
2019-01-06T12:07:37.860Z,2272.00
2019-01-06T12:08:41.182Z,2384.00
2019-01-06T12:09:37.847Z,2504.00
2019-01-06T12:10:37.842Z,2404.00
2019-01-06T12:11:37.834Z,2160.00
2019-01-06T12:12:38.082Z,1924.00
2019-01-06T12:13:37.821Z,1832.00
2019-01-06T12:14:37.821Z,1784.00
2019-01-06T12:15:37.815Z,1652.00
2019-01-06T12:16:37.811Z,1764.00
2019-01-06T12:17:37.810Z,1804.00
2019-01-06T12:18:37.791Z,2096.00
2019-01-06T12:19:37.783Z,2176.00
2019-01-06T12:20:37.779Z,2788.00
2019-01-06T12:21:37.854Z,2832.00
2019-01-06T12:22:37.766Z,2596.00
2019-01-06T12:23:37.758Z,2384.00
2019-01-06T12:24:37.761Z,2084.00
2019-01-06T12:25:37.745Z,1956.00
2019-01-06T12:26:37.740Z,1748.00
2019-01-06T12:27:37.732Z,1520.00
2019-01-06T12:28:37.729Z,1484.00
2019-01-06T12:29:37.721Z,1312.00
2019-01-06T12:30:37.718Z,1252.00
2019-01-06T12:31:37.710Z,1252.00
2019-01-06T12:32:37.705Z,1172.00
2019-01-06T12:33:37.696Z,956.00
2019-01-06T12:34:37.698Z,864.00
2019-01-06T12:35:37.683Z,896.00
2019-01-06T12:36:37.680Z,1036.00
2019-01-06T12:37:37.671Z,1000.00
2019-01-06T12:38:37.666Z,1188.00
2019-01-06T12:39:37.658Z,1244.00
2019-01-06T12:40:37.654Z,1256.00
2019-01-06T12:41:37.645Z,1212.00
2019-01-06T12:42:37.641Z,1164.00
2019-01-06T12:43:37.638Z,1188.00
2019-01-06T12:44:44.619Z,1260.00
2019-01-06T12:45:37.621Z,1304.00
2019-01-06T12:46:37.616Z,1272.00
2019-01-06T12:47:37.608Z,1596.00
2019-01-06T12:48:37.604Z,1452.00
2019-01-06T12:49:37.596Z,1324.00
2019-01-06T12:50:37.591Z,1236.00
2019-01-06T12:51:43.504Z,1228.00
2019-01-06T12:52:37.580Z,1240.00
2019-01-06T12:53:40.340Z,1228.00